Terminal Aerodrome Forecast
Issued by NWS

Home | Current Version | Previous Version | Text Only | Print | Product List | Glossary On
Versions: 1 2 3 4 5 6 7 8 9 10 11 12 13 14 15
666
FTUS45 KRIW 281730
TAFBPI
TAF
KBPI 281730Z 2818/2918 35015G22KT P6SM VCSH BKN060
     FM282200 06014KT P6SM SCT050 BKN080
     FM290400 VRB06KT P6SM SCT060 BKN100
     FM291600 VRB06KT P6SM FEW060 SCT120=

USA.gov is the U.S. government's official web portal to all federal, state and local government web resources and services.